createdAt,value
2019-01-20T00:00:29.602Z,8.70
2019-01-20T00:02:57.950Z,15.53
2019-01-20T00:05:26.324Z,9.67
2019-01-20T00:07:54.592Z,9.77
2019-01-20T00:10:23.007Z,13.13
2019-01-20T00:12:51.389Z,12.80
2019-01-20T00:15:21.288Z,12.00
2019-01-20T00:17:49.598Z,20.47
2019-01-20T00:20:17.955Z,12.13
2019-01-20T00:22:46.246Z,12.03
2019-01-20T00:25:14.509Z,11.13
2019-01-20T00:27:42.935Z,12.07
2019-01-20T00:30:18.375Z,12.97
2019-01-20T00:32:46.760Z,12.87
2019-01-20T00:35:15.938Z,9.23
2019-01-20T00:37:44.914Z,10.90
2019-01-20T00:40:18.577Z,7.53
2019-01-20T00:42:46.942Z,12.50
2019-01-20T00:45:17.700Z,9.60
2019-01-20T00:47:46.119Z,10.33
2019-01-20T00:50:15.828Z,11.83
2019-01-20T00:52:44.226Z,10.07
2019-01-20T00:55:17.864Z,7.93
2019-01-20T00:57:46.196Z,6.83
2019-01-20T01:00:24.078Z,12.43
2019-01-20T01:02:52.397Z,10.17
2019-01-20T01:05:20.927Z,10.47
2019-01-20T01:07:50.208Z,7.27
2019-01-20T01:10:18.551Z,8.90
2019-01-20T01:12:47.090Z,8.53
2019-01-20T01:15:15.403Z,10.30
2019-01-20T01:17:43.799Z,9.73
2019-01-20T01:20:14.929Z,9.70
2019-01-20T01:22:43.272Z,8.67
2019-01-20T01:25:14.187Z,6.30
2019-01-20T01:27:42.552Z,5.20
2019-01-20T01:30:16.779Z,10.43
2019-01-20T01:32:45.095Z,7.70
2019-01-20T01:35:13.501Z,12.13
2019-01-20T01:37:41.902Z,13.53
2019-01-20T01:40:13.003Z,15.73
2019-01-20T01:42:41.375Z,8.07
2019-01-20T01:45:15.766Z,10.43
2019-01-20T01:47:44.095Z,11.40
2019-01-20T01:50:14.087Z,11.00
2019-01-20T01:52:42.531Z,8.93
2019-01-20T01:55:11.925Z,6.83
2019-01-20T01:57:40.544Z,10.57
2019-01-20T02:00:12.537Z,7.90
2019-01-20T02:02:40.969Z,9.20
2019-01-20T02:05:09.913Z,7.37
2019-01-20T02:07:38.325Z,11.43
2019-01-20T02:10:15.270Z,10.23
2019-01-20T02:12:43.591Z,11.33
2019-01-20T02:15:14.216Z,8.13
2019-01-20T02:17:43.778Z,8.07
2019-01-20T02:20:15.295Z,9.87
2019-01-20T02:22:43.665Z,10.00
2019-01-20T02:25:12.053Z,12.50
2019-01-20T02:27:40.407Z,13.07
2019-01-20T02:30:14.728Z,7.80
2019-01-20T02:32:42.995Z,7.93
2019-01-20T02:35:11.361Z,6.90
2019-01-20T02:37:39.722Z,5.57
2019-01-20T02:40:11.699Z,7.73
2019-01-20T02:42:40.081Z,8.90
2019-01-20T02:45:11.404Z,9.23
2019-01-20T02:47:39.719Z,6.33
2019-01-20T02:50:11.335Z,8.10
2019-01-20T02:52:39.765Z,12.90
2019-01-20T02:55:08.092Z,7.33
2019-01-20T02:57:36.504Z,8.60
2019-01-20T03:00:08.258Z,7.80
2019-01-20T03:02:36.523Z,8.30
2019-01-20T03:05:08.093Z,9.00
2019-01-20T03:07:36.393Z,6.17
2019-01-20T03:10:07.568Z,14.50
2019-01-20T03:12:36.009Z,10.33
2019-01-20T03:15:07.423Z,8.73
2019-01-20T03:17:35.766Z,8.37
2019-01-20T03:20:07.640Z,7.30
2019-01-20T03:22:36.042Z,10.70
2019-01-20T03:25:06.783Z,6.23
2019-01-20T03:27:35.139Z,7.30
2019-01-20T03:30:05.827Z,12.43
2019-01-20T03:32:34.164Z,9.40
2019-01-20T03:35:02.534Z,10.63
2019-01-20T03:37:30.902Z,6.33
2019-01-20T03:39:59.196Z,11.03
2019-01-20T03:42:27.556Z,16.83
2019-01-20T03:44:56.075Z,12.37
2019-01-20T03:47:24.338Z,8.00
2019-01-20T03:49:52.619Z,7.97
2019-01-20T03:52:21.070Z,11.17
2019-01-20T03:54:49.326Z,6.53
2019-01-20T03:57:17.672Z,10.43
2019-01-20T03:59:48.108Z,9.43
2019-01-20T04:02:18.081Z,10.30
2019-01-20T04:04:46.421Z,6.40
2019-01-20T04:07:14.811Z,13.13
2019-01-20T04:09:43.162Z,9.27
2019-01-20T04:12:11.548Z,10.57
2019-01-20T04:14:39.854Z,13.63
2019-01-20T04:17:08.257Z,17.90
2019-01-20T04:19:36.543Z,10.33
2019-01-20T04:22:04.880Z,6.67
2019-01-20T04:24:33.192Z,13.00
2019-01-20T04:27:01.543Z,8.23
2019-01-20T04:29:29.930Z,10.80
2019-01-20T04:31:58.248Z,6.60
2019-01-20T04:34:26.502Z,8.90
2019-01-20T04:36:54.920Z,20.63
2019-01-20T04:39:23.273Z,13.83
2019-01-20T04:41:51.614Z,6.90
2019-01-20T04:44:19.975Z,9.80
2019-01-20T04:46:48.329Z,7.03
2019-01-20T04:49:16.697Z,9.53
2019-01-20T04:51:45.048Z,10.27
2019-01-20T04:54:14.009Z,7.73
2019-01-20T04:56:42.323Z,12.77
2019-01-20T04:59:10.633Z,7.90
2019-01-20T05:01:38.933Z,15.50
2019-01-20T05:04:07.274Z,8.63
2019-01-20T05:06:35.691Z,8.63
2019-01-20T05:09:05.589Z,8.63
2019-01-20T05:11:33.860Z,9.40
2019-01-20T05:14:02.302Z,16.53
2019-01-20T05:16:30.639Z,9.60
2019-01-20T05:18:58.995Z,14.70
2019-01-20T05:21:27.298Z,11.63
2019-01-20T05:23:55.608Z,14.77
2019-01-20T05:26:24.078Z,9.20
2019-01-20T05:28:52.352Z,12.40
2019-01-20T05:31:20.713Z,11.97
2019-01-20T05:33:49.187Z,9.30
2019-01-20T05:36:17.479Z,8.73
2019-01-20T05:38:45.800Z,7.57
2019-01-20T05:41:14.273Z,10.50
2019-01-20T05:43:42.613Z,10.73
2019-01-20T05:46:10.979Z,6.90
2019-01-20T05:48:39.401Z,8.03
2019-01-20T05:51:07.831Z,7.80
2019-01-20T05:53:36.171Z,9.70
2019-01-20T05:56:04.536Z,11.60
2019-01-20T05:58:33.000Z,9.50
2019-01-20T06:01:01.431Z,10.53
2019-01-20T06:03:29.804Z,7.73
2019-01-20T06:05:58.214Z,11.47
2019-01-20T06:08:26.787Z,11.03
2019-01-20T06:10:55.114Z,8.80
2019-01-20T06:13:23.563Z,8.57
2019-01-20T06:15:51.889Z,9.53
2019-01-20T06:18:20.387Z,8.70
2019-01-20T06:20:48.791Z,12.40
2019-01-20T06:23:17.262Z,12.20
2019-01-20T06:25:45.684Z,8.93
2019-01-20T06:28:13.995Z,8.20
2019-01-20T06:30:42.255Z,9.73
2019-01-20T06:33:10.624Z,8.20
2019-01-20T06:35:38.886Z,6.33
2019-01-20T06:38:07.157Z,8.93
2019-01-20T06:40:35.584Z,12.93
2019-01-20T06:43:03.964Z,11.10
2019-01-20T06:45:39.180Z,8.27
2019-01-20T06:48:07.654Z,16.77
2019-01-20T06:50:36.003Z,8.63
2019-01-20T06:53:04.601Z,8.70
2019-01-20T06:55:32.871Z,8.50
2019-01-20T06:58:01.140Z,11.97
2019-01-20T07:00:29.630Z,13.80
2019-01-20T07:02:58.116Z,15.40
2019-01-20T07:05:26.382Z,9.40
2019-01-20T07:07:55.758Z,7.43
2019-01-20T07:10:39.079Z,13.10
2019-01-20T07:13:10.042Z,10.97
2019-01-20T07:15:37.476Z,11.53
2019-01-20T07:18:05.795Z,10.00
2019-01-20T07:20:34.543Z,7.83
2019-01-20T07:23:03.270Z,15.43
2019-01-20T07:25:31.725Z,10.30
2019-01-20T07:28:00.576Z,17.20
2019-01-20T07:30:29.440Z,10.93
2019-01-20T07:32:57.714Z,12.23
2019-01-20T07:35:26.075Z,8.57
2019-01-20T07:37:54.462Z,12.97
2019-01-20T07:40:22.883Z,15.03
2019-01-20T07:42:51.470Z,16.93
2019-01-20T07:45:20.234Z,9.97
2019-01-20T07:47:48.572Z,14.00
2019-01-20T07:50:19.798Z,12.23
2019-01-20T07:52:48.148Z,11.80
2019-01-20T07:55:16.536Z,12.80
2019-01-20T07:57:45.073Z,12.23
2019-01-20T08:00:16.416Z,10.70
2019-01-20T08:02:44.832Z,15.53
2019-01-20T08:05:13.363Z,14.77
2019-01-20T08:07:41.947Z,14.30
2019-01-20T08:10:22.309Z,7.43
2019-01-20T08:12:50.679Z,12.60
2019-01-20T08:15:19.044Z,14.43
2019-01-20T08:17:47.474Z,13.83
2019-01-20T08:20:22.008Z,15.93
2019-01-20T08:22:50.408Z,11.10
2019-01-20T08:25:19.733Z,15.17
2019-01-20T08:27:48.244Z,17.67
2019-01-20T08:30:20.050Z,9.37
2019-01-20T08:32:48.399Z,16.07
2019-01-20T08:35:16.718Z,17.07
2019-01-20T08:37:45.381Z,10.10
2019-01-20T08:40:16.773Z,16.23
2019-01-20T08:42:45.115Z,17.70
2019-01-20T08:45:16.815Z,12.23
2019-01-20T08:47:48.376Z,11.00
2019-01-20T08:50:16.844Z,11.13
2019-01-20T08:52:45.249Z,16.00
2019-01-20T08:55:14.887Z,15.07
2019-01-20T08:57:43.302Z,14.97
2019-01-20T09:00:14.786Z,13.30
2019-01-20T09:02:44.136Z,14.67
2019-01-20T09:05:13.473Z,21.37
2019-01-20T09:07:41.882Z,20.87
2019-01-20T09:10:19.398Z,13.90
2019-01-20T09:12:48.578Z,18.30
2019-01-20T09:15:17.057Z,18.40
2019-01-20T09:17:47.043Z,17.33
2019-01-20T09:20:15.852Z,22.20
2019-01-20T09:22:45.311Z,12.30
2019-01-20T09:25:14.813Z,17.93
2019-01-20T09:27:43.490Z,13.97
2019-01-20T09:30:23.684Z,20.67
2019-01-20T09:32:52.090Z,17.43
2019-01-20T09:35:20.435Z,16.20
2019-01-20T09:38:03.472Z,28.03
2019-01-20T09:40:34.189Z,13.90
2019-01-20T09:43:07.719Z,20.80
2019-01-20T09:45:37.234Z,18.63
2019-01-20T09:48:11.256Z,18.87
2019-01-20T09:50:39.887Z,18.40
2019-01-20T09:53:18.995Z,19.27
2019-01-20T09:55:49.174Z,16.67
2019-01-20T09:58:19.294Z,19.37
2019-01-20T10:00:47.909Z,15.77
2019-01-20T10:03:16.550Z,16.10
2019-01-20T10:05:48.004Z,21.90
2019-01-20T10:08:17.136Z,17.70
2019-01-20T10:10:48.993Z,17.27
2019-01-20T10:13:18.892Z,17.47
2019-01-20T10:15:52.563Z,19.93
2019-01-20T10:18:24.887Z,19.33
2019-01-20T10:20:54.616Z,13.37
2019-01-20T10:23:33.581Z,15.90
2019-01-20T10:26:03.387Z,20.63
2019-01-20T10:28:32.829Z,15.83
2019-01-20T10:31:01.328Z,16.83
2019-01-20T10:33:29.954Z,14.40
2019-01-20T10:36:02.324Z,16.10
2019-01-20T10:38:30.699Z,10.90
2019-01-20T10:40:58.994Z,12.63
2019-01-20T10:43:28.975Z,12.13
2019-01-20T10:45:57.454Z,17.07
2019-01-20T10:48:26.686Z,12.33
2019-01-20T10:50:55.914Z,12.90
2019-01-20T10:53:24.265Z,20.70
2019-01-20T10:55:52.749Z,14.63
2019-01-20T10:58:21.011Z,13.47
2019-01-20T11:00:49.418Z,12.00
2019-01-20T11:03:18.246Z,13.90
2019-01-20T11:05:46.516Z,11.50
2019-01-20T11:08:14.909Z,10.50
2019-01-20T11:10:43.262Z,10.73
2019-01-20T11:13:11.616Z,13.67
2019-01-20T11:15:40.037Z,13.70
2019-01-20T11:18:08.344Z,11.17
2019-01-20T11:20:36.616Z,11.50
2019-01-20T11:23:05.382Z,11.40
2019-01-20T11:25:37.333Z,17.57
2019-01-20T11:28:05.794Z,20.43
2019-01-20T11:30:34.784Z,16.13
2019-01-20T11:33:05.228Z,10.87
2019-01-20T11:35:34.920Z,13.90
2019-01-20T11:38:03.346Z,15.30
2019-01-20T11:40:31.782Z,11.27
2019-01-20T11:43:00.043Z,13.70
2019-01-20T11:45:31.096Z,17.17
2019-01-20T11:47:59.540Z,10.60
2019-01-20T11:50:27.960Z,12.10
2019-01-20T11:52:56.437Z,15.77
2019-01-20T11:55:25.142Z,16.60
2019-01-20T11:57:53.569Z,18.03
2019-01-20T12:00:28.260Z,23.27
2019-01-20T12:02:59.061Z,16.10
2019-01-20T12:05:27.520Z,16.23
2019-01-20T12:08:01.276Z,13.87
2019-01-20T12:10:29.932Z,16.30
2019-01-20T12:13:00.085Z,12.10
2019-01-20T12:15:29.457Z,18.53
2019-01-20T12:17:57.825Z,11.70
2019-01-20T12:20:27.105Z,10.97
2019-01-20T12:22:55.543Z,14.17
2019-01-20T12:25:23.919Z,11.03
2019-01-20T12:27:52.332Z,12.30
2019-01-20T12:30:29.646Z,16.87
2019-01-20T12:32:58.137Z,10.03
2019-01-20T12:35:26.519Z,11.50
2019-01-20T12:37:54.923Z,13.10
2019-01-20T12:40:26.480Z,11.80
2019-01-20T12:42:54.818Z,11.70
2019-01-20T12:45:23.198Z,14.50
2019-01-20T12:47:51.595Z,13.30
2019-01-20T12:50:19.924Z,15.60
2019-01-20T12:52:48.273Z,10.90
2019-01-20T12:55:16.721Z,15.90
2019-01-20T12:57:45.667Z,11.60
2019-01-20T13:00:18.126Z,12.97
2019-01-20T13:02:46.691Z,14.90
2019-01-20T13:05:15.978Z,17.17
2019-01-20T13:07:48.446Z,15.13
2019-01-20T13:10:19.660Z,15.00
2019-01-20T13:12:48.101Z,16.23
2019-01-20T13:15:19.965Z,25.60
2019-01-20T13:17:48.438Z,15.27
2019-01-20T13:20:23.314Z,15.97
2019-01-20T13:22:52.518Z,13.07
2019-01-20T13:25:24.372Z,16.43
2019-01-20T13:27:53.905Z,18.20
2019-01-20T13:30:25.673Z,15.17
2019-01-20T13:32:54.891Z,18.13
2019-01-20T13:35:23.932Z,20.57
2019-01-20T13:38:02.068Z,16.73
2019-01-20T13:40:33.771Z,16.70
2019-01-20T13:43:03.003Z,16.90
2019-01-20T13:45:31.477Z,18.03
2019-01-20T13:48:00.613Z,15.10
2019-01-20T13:50:29.054Z,27.30
2019-01-20T13:52:57.974Z,21.50
2019-01-20T13:55:26.347Z,21.90
2019-01-20T13:57:54.913Z,21.70
2019-01-20T14:00:26.228Z,24.73
2019-01-20T14:02:55.483Z,21.77
2019-01-20T14:05:24.666Z,21.60
2019-01-20T14:07:53.246Z,21.20
2019-01-20T14:10:23.954Z,16.40
2019-01-20T14:12:52.332Z,17.93
2019-01-20T14:15:20.748Z,21.90
2019-01-20T14:17:49.379Z,19.70
2019-01-20T14:20:28.964Z,19.60
2019-01-20T14:22:57.840Z,20.90
2019-01-20T14:25:29.493Z,21.90
2019-01-20T14:27:57.874Z,21.20
2019-01-20T14:30:29.517Z,27.43
2019-01-20T14:32:57.924Z,18.67
2019-01-20T14:35:26.502Z,19.53
2019-01-20T14:37:55.146Z,26.53
2019-01-20T14:40:23.698Z,22.57
2019-01-20T14:42:53.405Z,18.53
2019-01-20T14:45:22.818Z,20.00
2019-01-20T14:47:53.013Z,18.97
2019-01-20T14:50:28.335Z,25.40
2019-01-20T14:52:57.303Z,24.63
2019-01-20T14:55:26.299Z,26.87
2019-01-20T14:57:56.295Z,24.83
2019-01-20T15:00:36.638Z,24.87
2019-01-20T15:03:07.360Z,22.43
2019-01-20T15:05:35.869Z,23.40
2019-01-20T15:08:06.086Z,31.97
2019-01-20T15:10:34.765Z,26.33
2019-01-20T15:13:03.195Z,22.60
2019-01-20T15:15:34.633Z,28.43
2019-01-20T15:18:03.270Z,19.00
2019-01-20T15:20:31.693Z,22.40
2019-01-20T15:23:02.440Z,24.37
2019-01-20T15:25:30.970Z,25.13
2019-01-20T15:27:59.758Z,19.13
2019-01-20T15:30:32.555Z,22.40
2019-01-20T15:33:03.163Z,22.10
2019-01-20T15:35:31.510Z,25.17
2019-01-20T15:37:59.937Z,21.53
2019-01-20T15:40:28.259Z,27.70
2019-01-20T15:42:59.096Z,20.50
2019-01-20T15:45:27.549Z,24.80
2019-01-20T15:47:55.982Z,22.70
2019-01-20T15:50:31.340Z,24.47
2019-01-20T15:52:59.939Z,25.40
2019-01-20T15:55:28.307Z,20.83
2019-01-20T15:57:56.763Z,29.80
2019-01-20T16:00:28.864Z,24.87
2019-01-20T16:02:57.415Z,21.67
2019-01-20T16:05:26.733Z,23.13
2019-01-20T16:07:55.335Z,24.60
2019-01-20T16:10:25.452Z,20.70
2019-01-20T16:12:55.838Z,23.53
2019-01-20T16:15:29.862Z,23.57
2019-01-20T16:17:58.380Z,23.93
2019-01-20T16:20:28.769Z,20.83
2019-01-20T16:22:57.334Z,24.30
2019-01-20T16:25:31.232Z,27.20
2019-01-20T16:27:59.701Z,26.63
2019-01-20T16:30:30.967Z,31.50
2019-01-20T16:32:59.522Z,33.63
2019-01-20T16:35:27.988Z,28.87
2019-01-20T16:37:58.435Z,32.03
2019-01-20T16:40:27.659Z,36.87
2019-01-20T16:42:56.160Z,27.57
2019-01-20T16:45:32.887Z,31.80
2019-01-20T16:47:58.174Z,27.10
2019-01-20T16:50:26.433Z,29.53
2019-01-20T16:52:56.677Z,29.33
2019-01-20T16:55:25.120Z,36.77
2019-01-20T16:57:54.140Z,45.87
2019-01-20T17:00:28.821Z,42.03
2019-01-20T17:02:57.205Z,34.93
2019-01-20T17:05:27.031Z,37.83
2019-01-20T17:07:55.975Z,36.97
2019-01-20T17:10:29.081Z,30.97
2019-01-20T17:12:58.559Z,31.67
2019-01-20T17:15:30.355Z,32.80
2019-01-20T17:17:58.750Z,27.33
2019-01-20T17:20:27.975Z,33.70
2019-01-20T17:22:56.376Z,28.53
2019-01-20T17:25:24.745Z,34.47
2019-01-20T17:27:53.150Z,34.80
2019-01-20T17:30:27.375Z,28.97
2019-01-20T17:32:55.865Z,33.57
2019-01-20T17:35:24.169Z,33.83
2019-01-20T17:37:52.582Z,35.83
2019-01-20T17:40:26.198Z,36.90
2019-01-20T17:42:54.795Z,41.13
2019-01-20T17:45:30.057Z,29.73
2019-01-20T17:47:58.506Z,37.13
2019-01-20T17:50:31.852Z,40.53
2019-01-20T17:53:00.918Z,33.13
2019-01-20T17:55:29.203Z,29.13
2019-01-20T17:57:58.036Z,32.53
2019-01-20T18:00:36.918Z,42.90
2019-01-20T18:03:08.581Z,30.10
2019-01-20T18:05:37.293Z,42.33
2019-01-20T18:08:05.824Z,34.70
2019-01-20T18:10:34.352Z,45.77
2019-01-20T18:13:02.930Z,31.60
2019-01-20T18:15:32.703Z,30.10
2019-01-20T18:18:02.184Z,34.57
2019-01-20T18:20:32.657Z,38.70
2019-01-20T18:23:01.169Z,38.43
2019-01-20T18:25:29.574Z,37.83
2019-01-20T18:27:58.224Z,36.43
2019-01-20T18:30:31.678Z,37.73
2019-01-20T18:33:00.148Z,32.07
2019-01-20T18:35:29.146Z,33.27
2019-01-20T18:37:57.474Z,38.60
2019-01-20T18:40:26.852Z,34.83
2019-01-20T18:42:55.382Z,44.40
2019-01-20T18:45:26.976Z,34.90
2019-01-20T18:47:55.279Z,35.00
2019-01-20T18:50:32.543Z,35.30
2019-01-20T18:53:01.290Z,41.50
2019-01-20T18:55:30.282Z,39.63
2019-01-20T18:57:59.143Z,42.00
2019-01-20T19:00:30.335Z,29.73
2019-01-20T19:02:58.750Z,34.73
2019-01-20T19:05:30.561Z,41.43
2019-01-20T19:07:59.293Z,32.33
2019-01-20T19:10:27.599Z,30.67
2019-01-20T19:12:56.199Z,35.00
2019-01-20T19:15:24.958Z,39.17
2019-01-20T19:17:53.910Z,37.13
2019-01-20T19:20:25.216Z,36.43
2019-01-20T19:22:56.917Z,32.00
2019-01-20T19:25:25.643Z,44.20
2019-01-20T19:27:54.512Z,41.33
2019-01-20T19:30:29.820Z,36.57
2019-01-20T19:32:59.037Z,40.27
2019-01-20T19:35:28.647Z,39.17
2019-01-20T19:37:59.236Z,37.10
2019-01-20T19:40:31.066Z,34.63
2019-01-20T19:43:00.327Z,38.73
2019-01-20T19:45:33.221Z,41.03
2019-01-20T19:48:04.613Z,39.43
2019-01-20T19:50:36.165Z,43.50
2019-01-20T19:53:06.695Z,40.03
2019-01-20T19:55:37.119Z,34.97
2019-01-20T19:58:08.968Z,43.67
2019-01-20T20:00:40.693Z,43.63
2019-01-20T20:03:10.365Z,38.77
2019-01-20T20:05:39.830Z,47.37
2019-01-20T20:08:09.022Z,36.77
2019-01-20T20:10:38.177Z,38.90
2019-01-20T20:13:06.775Z,37.30
2019-01-20T20:15:35.539Z,39.03
2019-01-20T20:18:04.412Z,32.63
2019-01-20T20:20:32.840Z,35.40
2019-01-20T20:23:01.194Z,43.00
2019-01-20T20:25:29.519Z,36.30
2019-01-20T20:27:58.136Z,42.73
2019-01-20T20:30:29.529Z,34.63
2019-01-20T20:32:57.879Z,44.73
2019-01-20T20:35:26.281Z,48.37
2019-01-20T20:37:54.574Z,32.60
2019-01-20T20:40:23.231Z,37.83
2019-01-20T20:42:51.639Z,37.13
2019-01-20T20:45:22.270Z,32.73
2019-01-20T20:47:50.662Z,34.17
2019-01-20T20:50:19.157Z,33.83
2019-01-20T20:52:50.078Z,35.57
2019-01-20T20:55:18.547Z,34.27
2019-01-20T20:57:46.972Z,36.30
2019-01-20T21:00:18.433Z,34.40
2019-01-20T21:02:46.785Z,35.07
2019-01-20T21:05:16.077Z,42.20
2019-01-20T21:07:47.767Z,34.47
2019-01-20T21:10:35.323Z,40.53
2019-01-20T21:13:10.679Z,31.67
2019-01-20T21:15:46.501Z,42.50
2019-01-20T21:18:25.074Z,32.43
2019-01-20T21:20:53.746Z,41.83
2019-01-20T21:23:22.089Z,49.93
2019-01-20T21:25:50.390Z,36.53
2019-01-20T21:28:19.871Z,34.23
2019-01-20T21:30:48.356Z,36.57
2019-01-20T21:33:16.866Z,37.37
2019-01-20T21:35:48.152Z,33.63
2019-01-20T21:38:21.986Z,48.17
2019-01-20T21:40:50.279Z,53.87
2019-01-20T21:43:18.767Z,34.60
2019-01-20T21:45:48.979Z,35.33
2019-01-20T21:48:18.231Z,38.53
2019-01-20T21:50:48.374Z,45.30
2019-01-20T21:53:17.620Z,43.33
2019-01-20T21:55:45.893Z,40.20
2019-01-20T21:58:14.596Z,37.83
2019-01-20T22:00:42.997Z,36.10
2019-01-20T22:03:11.401Z,55.63
2019-01-20T22:05:40.560Z,35.47
2019-01-20T22:08:09.880Z,43.30
2019-01-20T22:10:38.393Z,48.33
2019-01-20T22:13:07.402Z,45.70
2019-01-20T22:15:36.431Z,42.83
2019-01-20T22:18:06.885Z,41.33
2019-01-20T22:20:36.158Z,39.67
2019-01-20T22:23:06.364Z,34.30
2019-01-20T22:25:35.099Z,43.43
2019-01-20T22:28:03.598Z,35.10
2019-01-20T22:30:33.534Z,32.43
2019-01-20T22:33:02.191Z,35.33
2019-01-20T22:35:33.559Z,38.10
2019-01-20T22:38:02.268Z,43.30
2019-01-20T22:40:31.055Z,36.47
2019-01-20T22:42:59.632Z,36.20
2019-01-20T22:45:28.983Z,41.93
2019-01-20T22:47:57.425Z,33.27
2019-01-20T22:50:26.367Z,45.40
2019-01-20T22:52:56.341Z,38.27
2019-01-20T22:55:24.688Z,44.57
2019-01-20T22:57:54.786Z,40.30
2019-01-20T23:00:40.110Z,32.83
2019-01-20T23:03:08.789Z,40.63
2019-01-20T23:05:37.217Z,37.13
2019-01-20T23:08:05.621Z,51.77
2019-01-20T23:10:33.995Z,36.93
2019-01-20T23:13:02.450Z,37.57
2019-01-20T23:15:30.856Z,41.93
2019-01-20T23:17:59.311Z,33.67
2019-01-20T23:20:28.203Z,33.70
2019-01-20T23:22:56.683Z,39.93
2019-01-20T23:25:25.026Z,44.93
2019-01-20T23:27:53.301Z,42.13
2019-01-20T23:30:21.702Z,35.87
2019-01-20T23:32:49.975Z,53.97
2019-01-20T23:35:18.316Z,41.83
2019-01-20T23:37:46.589Z,35.73
2019-01-20T23:40:18.692Z,42.70
2019-01-20T23:42:47.084Z,37.07
2019-01-20T23:45:15.366Z,39.33
2019-01-20T23:47:43.735Z,42.10
2019-01-20T23:50:17.351Z,38.57
2019-01-20T23:52:45.703Z,55.03
2019-01-20T23:55:14.046Z,37.27
2019-01-20T23:57:42.732Z,43.30
